createdAt,value
2022-10-19T00:00:33.140Z,10.50
2022-10-19T00:01:36.676Z,10.23
2022-10-19T00:02:38.311Z,10.93
2022-10-19T00:03:41.116Z,10.87
2022-10-19T00:04:42.993Z,11.17
2022-10-19T00:05:44.508Z,12.97
2022-10-19T00:06:46.400Z,10.30
2022-10-19T00:07:47.932Z,9.47
2022-10-19T00:08:49.451Z,10.03
2022-10-19T00:09:51.104Z,10.90
2022-10-19T00:10:52.649Z,12.57
2022-10-19T00:11:54.224Z,11.27
2022-10-19T00:12:55.803Z,11.57
2022-10-19T00:13:58.450Z,11.40
2022-10-19T00:15:00.204Z,14.10
2022-10-19T00:16:02.210Z,13.47
2022-10-19T00:17:03.759Z,12.73
2022-10-19T00:18:05.281Z,12.17
2022-10-19T00:19:12.376Z,9.50
2022-10-19T00:20:13.953Z,18.07
2022-10-19T00:21:18.146Z,9.83
2022-10-19T00:22:19.722Z,8.53
2022-10-19T00:23:22.901Z,9.27
2022-10-19T00:24:24.477Z,10.23
2022-10-19T00:25:26.012Z,14.87
2022-10-19T00:26:27.969Z,11.27
2022-10-19T00:27:29.596Z,11.30
2022-10-19T00:28:31.480Z,10.93
2022-10-19T00:29:33.138Z,9.67
2022-10-19T00:30:38.418Z,13.57
2022-10-19T00:31:40.983Z,10.13
2022-10-19T00:32:42.687Z,11.37
2022-10-19T00:33:46.905Z,9.43
2022-10-19T00:34:48.516Z,10.27
2022-10-19T00:35:51.624Z,10.77
2022-10-19T00:36:53.139Z,10.03
2022-10-19T00:37:54.690Z,8.90
2022-10-19T00:38:57.415Z,10.97
2022-10-19T00:39:58.970Z,12.43
2022-10-19T00:41:00.501Z,10.17
2022-10-19T00:42:02.132Z,10.10
2022-10-19T00:43:03.706Z,12.53
2022-10-19T00:44:30.890Z,9.07
2022-10-19T00:45:32.467Z,12.07
2022-10-19T00:46:37.080Z,8.73
2022-10-19T00:47:39.080Z,11.20
2022-10-19T00:48:40.680Z,11.13
2022-10-19T00:49:45.404Z,11.23
2022-10-19T00:50:48.679Z,10.33
2022-10-19T00:51:56.863Z,10.57
2022-10-19T00:52:58.419Z,8.57
2022-10-19T00:54:02.304Z,9.33
2022-10-19T00:55:04.746Z,11.73
2022-10-19T00:56:12.065Z,12.90
2022-10-19T00:57:14.474Z,13.03
2022-10-19T00:58:16.083Z,9.40
2022-10-19T00:59:20.943Z,7.87
2022-10-19T01:00:22.529Z,6.97
2022-10-19T01:01:26.595Z,8.03
2022-10-19T01:02:28.264Z,12.10
2022-10-19T01:03:29.837Z,7.53
2022-10-19T01:04:33.971Z,8.37
2022-10-19T01:05:36.385Z,7.97
2022-10-19T01:06:39.633Z,6.67
2022-10-19T01:07:41.361Z,8.87
2022-10-19T01:08:42.971Z,8.17
2022-10-19T01:09:44.604Z,8.90
2022-10-19T01:11:01.596Z,9.40
2022-10-19T01:12:12.155Z,7.97
2022-10-19T01:13:39.664Z,8.27
2022-10-19T01:14:46.750Z,8.83
2022-10-19T01:16:04.932Z,9.07
2022-10-19T01:17:25.050Z,13.03
2022-10-19T01:18:58.160Z,8.47
2022-10-19T01:20:02.288Z,8.90
2022-10-19T01:21:28.761Z,7.93
2022-10-19T01:22:48.082Z,11.30
2022-10-19T01:24:08.345Z,10.93
2022-10-19T01:25:34.011Z,10.03
2022-10-19T01:27:17.560Z,12.70
2022-10-19T01:28:43.247Z,10.60
2022-10-19T01:30:22.152Z,9.03
2022-10-19T01:31:44.706Z,9.93
2022-10-19T01:33:04.536Z,9.27
2022-10-19T01:34:30.507Z,11.67
2022-10-19T01:35:39.706Z,11.10
2022-10-19T01:37:02.655Z,9.73
2022-10-19T01:38:04.124Z,11.53
2022-10-19T01:39:33.280Z,10.30
2022-10-19T01:40:55.179Z,9.27
2022-10-19T01:42:07.411Z,11.30
2022-10-19T01:43:40.195Z,10.87
2022-10-19T01:44:50.748Z,8.10
2022-10-19T01:46:06.503Z,10.27
2022-10-19T01:47:15.516Z,12.00
2022-10-19T01:48:31.904Z,8.37
2022-10-19T01:49:48.411Z,9.97
2022-10-19T01:51:01.953Z,10.87
2022-10-19T01:52:06.978Z,8.97
2022-10-19T01:53:12.486Z,9.77
2022-10-19T01:54:16.887Z,13.17
2022-10-19T01:55:19.905Z,10.83
2022-10-19T01:56:26.461Z,10.10
2022-10-19T01:57:35.287Z,11.70
2022-10-19T01:58:41.062Z,13.13
2022-10-19T01:59:43.966Z,9.33
2022-10-19T02:00:49.788Z,10.67
2022-10-19T02:01:53.718Z,9.40
2022-10-19T02:02:56.385Z,12.30
2022-10-19T02:03:58.796Z,15.10
2022-10-19T02:05:02.186Z,11.73
2022-10-19T02:06:07.296Z,16.40
2022-10-19T02:07:10.962Z,11.83
2022-10-19T02:08:19.005Z,10.67
2022-10-19T02:09:20.857Z,14.63
2022-10-19T02:10:22.963Z,12.70
2022-10-19T02:11:25.211Z,13.37
2022-10-19T02:12:28.915Z,10.20
2022-10-19T02:13:32.056Z,11.77
2022-10-19T02:14:42.824Z,11.63
2022-10-19T02:15:50.679Z,11.00
2022-10-19T02:16:58.115Z,13.83
2022-10-19T02:18:01.474Z,10.17
2022-10-19T02:19:05.169Z,10.40
2022-10-19T02:20:07.216Z,9.60
2022-10-19T02:21:09.495Z,11.23
2022-10-19T02:22:12.583Z,9.20
2022-10-19T02:23:17.180Z,11.07
2022-10-19T02:24:18.833Z,13.10
2022-10-19T02:25:20.966Z,11.13
2022-10-19T02:26:22.754Z,9.33
2022-10-19T02:27:24.554Z,10.33
2022-10-19T02:28:27.101Z,9.10
2022-10-19T02:29:28.734Z,10.60
2022-10-19T02:30:30.409Z,10.00
2022-10-19T02:31:32.421Z,13.73
2022-10-19T02:32:34.447Z,13.10
2022-10-19T02:33:36.834Z,10.97
2022-10-19T02:34:39.898Z,11.23
2022-10-19T02:35:41.952Z,9.03
2022-10-19T02:36:43.662Z,12.07
2022-10-19T02:37:45.720Z,10.87
2022-10-19T02:38:47.417Z,11.67
2022-10-19T02:39:48.947Z,11.07
2022-10-19T02:41:15.243Z,10.03
2022-10-19T02:42:46.130Z,9.43
2022-10-19T02:44:01.105Z,10.93
2022-10-19T02:45:10.498Z,10.17
2022-10-19T02:46:20.620Z,8.47
2022-10-19T02:47:44.951Z,10.93
2022-10-19T02:48:48.359Z,11.57
2022-10-19T02:49:50.717Z,11.30
2022-10-19T02:50:52.269Z,10.67
2022-10-19T02:52:02.083Z,8.47
2022-10-19T02:53:03.727Z,12.10
2022-10-19T02:54:07.683Z,12.67
2022-10-19T02:55:09.918Z,13.60
2022-10-19T02:56:11.450Z,8.43
2022-10-19T02:57:19.298Z,11.30
2022-10-19T02:58:20.901Z,10.30
2022-10-19T02:59:23.432Z,11.43
2022-10-19T03:00:25.149Z,9.33
2022-10-19T03:01:27.047Z,12.37
2022-10-19T03:02:28.635Z,12.13
2022-10-19T03:03:30.146Z,13.77
2022-10-19T03:04:31.692Z,10.30
2022-10-19T03:05:33.226Z,14.60
2022-10-19T03:06:34.786Z,12.53
2022-10-19T03:07:36.729Z,12.43
2022-10-19T03:08:38.805Z,12.63
2022-10-19T03:09:40.978Z,14.73
2022-10-19T03:10:42.500Z,10.30
2022-10-19T03:11:44.034Z,11.60
2022-10-19T03:12:45.637Z,9.10
2022-10-19T03:14:49.652Z,11.60
2022-10-19T03:15:51.347Z,11.70
2022-10-19T03:16:52.868Z,11.90
2022-10-19T03:17:54.852Z,12.00
2022-10-19T03:18:56.406Z,11.00
2022-10-19T03:19:58.012Z,10.37
2022-10-19T03:21:18.849Z,9.87
2022-10-19T03:22:20.438Z,12.50
2022-10-19T03:23:21.958Z,11.30
2022-10-19T03:24:23.826Z,9.03
2022-10-19T03:25:25.377Z,10.10
2022-10-19T03:26:27.342Z,11.90
2022-10-19T03:27:28.882Z,11.53
2022-10-19T03:28:30.715Z,9.93
2022-10-19T03:29:32.358Z,10.10
2022-10-19T03:30:33.882Z,8.93
2022-10-19T03:31:35.498Z,12.17
2022-10-19T03:32:37.563Z,12.40
2022-10-19T03:33:39.125Z,17.27
2022-10-19T03:34:40.655Z,14.97
2022-10-19T03:35:42.159Z,13.40
2022-10-19T03:36:43.960Z,11.93
2022-10-19T03:37:45.580Z,11.50
2022-10-19T03:38:47.666Z,15.50
2022-10-19T03:39:49.210Z,13.53
2022-10-19T03:40:50.708Z,14.03
2022-10-19T03:41:52.324Z,16.63
2022-10-19T03:42:53.834Z,14.13
2022-10-19T03:43:56.701Z,13.53
2022-10-19T03:44:58.618Z,13.83
2022-10-19T03:46:00.157Z,13.83
2022-10-19T03:47:02.298Z,18.30
2022-10-19T03:48:04.469Z,19.67
2022-10-19T03:49:08.897Z,17.87
2022-10-19T03:50:13.150Z,20.93
2022-10-19T03:51:17.415Z,14.63
2022-10-19T03:52:19.750Z,17.23
2022-10-19T03:53:21.273Z,15.50
2022-10-19T03:54:25.091Z,18.50
2022-10-19T03:55:30.365Z,17.50
2022-10-19T03:56:33.244Z,18.53
2022-10-19T03:57:35.086Z,15.53
2022-10-19T03:58:37.957Z,19.80
2022-10-19T03:59:39.505Z,18.77
2022-10-19T04:00:41.059Z,17.47
2022-10-19T04:01:45.480Z,17.80
2022-10-19T04:02:46.994Z,14.00
2022-10-19T04:03:53.723Z,15.63
2022-10-19T04:04:55.398Z,14.87
2022-10-19T04:06:03.702Z,20.97
2022-10-19T04:07:05.239Z,16.87
2022-10-19T04:08:06.758Z,15.13
2022-10-19T04:09:11.208Z,17.20
2022-10-19T04:10:12.736Z,15.93
2022-10-19T04:11:15.800Z,14.77
2022-10-19T04:12:17.910Z,15.37
2022-10-19T04:13:19.439Z,15.80
2022-10-19T04:14:31.868Z,16.23
2022-10-19T04:15:34.769Z,14.90
2022-10-19T04:16:36.429Z,20.60
2022-10-19T04:17:38.034Z,15.10
2022-10-19T04:18:39.592Z,14.00
2022-10-19T04:19:43.540Z,13.67
2022-10-19T04:20:45.325Z,15.60
2022-10-19T04:21:49.071Z,12.33
2022-10-19T04:22:53.059Z,14.57
2022-10-19T04:24:03.626Z,17.57
2022-10-19T04:25:05.788Z,17.33
2022-10-19T04:26:08.090Z,17.03
2022-10-19T04:27:09.846Z,16.63
2022-10-19T04:28:11.417Z,16.17
2022-10-19T04:29:14.444Z,11.70
2022-10-19T04:30:16.155Z,17.53
2022-10-19T04:31:17.701Z,12.83
2022-10-19T04:32:21.638Z,14.97
2022-10-19T04:33:23.965Z,17.87
2022-10-19T04:34:25.587Z,11.27
2022-10-19T04:35:27.501Z,15.07
2022-10-19T04:36:29.122Z,15.70
2022-10-19T04:37:30.928Z,15.40
2022-10-19T04:38:33.640Z,14.57
2022-10-19T04:39:39.329Z,14.60
2022-10-19T04:40:45.619Z,13.93
2022-10-19T04:41:47.235Z,16.70
2022-10-19T04:42:48.785Z,15.10
2022-10-19T04:43:55.962Z,15.10
2022-10-19T04:44:57.508Z,16.77
2022-10-19T04:46:04.528Z,14.63
2022-10-19T04:47:06.081Z,16.57
2022-10-19T04:48:07.700Z,16.77
2022-10-19T04:49:09.230Z,16.90
2022-10-19T04:50:11.020Z,15.43
2022-10-19T04:51:12.892Z,18.13
2022-10-19T04:52:14.442Z,17.87
2022-10-19T04:53:16.049Z,21.40
2022-10-19T04:54:17.607Z,16.90
2022-10-19T04:55:19.150Z,18.17
2022-10-19T04:56:23.228Z,18.77
2022-10-19T04:57:24.757Z,20.40
2022-10-19T04:58:27.431Z,15.90
2022-10-19T04:59:28.937Z,17.47
2022-10-19T05:00:30.515Z,15.87
2022-10-19T05:01:32.076Z,14.53
2022-10-19T05:02:33.772Z,20.77
2022-10-19T05:03:35.426Z,16.97
2022-10-19T05:04:37.766Z,19.97
2022-10-19T05:05:40.694Z,15.83
2022-10-19T05:06:42.229Z,19.90
2022-10-19T05:07:43.791Z,17.03
2022-10-19T05:08:45.314Z,19.10
2022-10-19T05:09:46.844Z,21.00
2022-10-19T05:10:48.428Z,18.63
2022-10-19T05:11:50.993Z,18.00
2022-10-19T05:12:52.782Z,22.53
2022-10-19T05:13:55.838Z,20.40
2022-10-19T05:14:57.346Z,18.70
2022-10-19T05:16:04.680Z,20.40
2022-10-19T05:17:06.213Z,19.57
2022-10-19T05:18:08.245Z,18.10
2022-10-19T05:19:14.263Z,15.70
2022-10-19T05:20:15.867Z,19.63
2022-10-19T05:21:18.077Z,18.70
2022-10-19T05:22:19.574Z,18.07
2022-10-19T05:23:21.176Z,24.83
2022-10-19T05:24:22.834Z,16.13
2022-10-19T05:25:24.421Z,18.77
2022-10-19T05:26:27.224Z,20.03
2022-10-19T05:27:28.847Z,20.03
2022-10-19T05:28:30.622Z,17.43
2022-10-19T05:29:33.899Z,14.70
2022-10-19T05:30:35.407Z,20.00
2022-10-19T05:31:37.376Z,19.93
2022-10-19T05:32:38.919Z,16.17
2022-10-19T05:33:41.809Z,15.63
2022-10-19T05:34:43.414Z,15.63
2022-10-19T05:35:44.934Z,15.77
2022-10-19T05:36:46.453Z,21.53
2022-10-19T05:37:47.972Z,18.87
2022-10-19T05:38:50.419Z,18.20
2022-10-19T05:39:52.310Z,18.97
2022-10-19T05:40:53.872Z,27.33
2022-10-19T05:41:55.456Z,19.17
2022-10-19T05:42:56.994Z,23.97
2022-10-19T05:44:00.508Z,24.57
2022-10-19T05:45:02.043Z,23.20
2022-10-19T05:46:06.633Z,20.87
2022-10-19T05:47:08.284Z,18.63
2022-10-19T05:48:09.820Z,16.83
2022-10-19T05:49:12.996Z,19.60
2022-10-19T05:50:14.547Z,19.93
2022-10-19T05:51:18.543Z,19.57
2022-10-19T05:52:20.116Z,15.73
2022-10-19T05:53:21.650Z,17.73
2022-10-19T05:54:26.319Z,15.40
2022-10-19T05:55:29.976Z,17.80
2022-10-19T05:56:33.017Z,20.10
2022-10-19T05:57:34.735Z,18.83
2022-10-19T05:58:36.436Z,19.50
2022-10-19T05:59:38.004Z,25.50
2022-10-19T06:00:39.537Z,29.10
2022-10-19T06:01:41.156Z,22.77
2022-10-19T06:02:42.775Z,22.13
2022-10-19T06:03:44.362Z,25.13
2022-10-19T06:04:45.883Z,21.67
2022-10-19T06:05:48.341Z,24.13
2022-10-19T06:06:49.916Z,22.13
2022-10-19T06:07:52.071Z,24.17
2022-10-19T06:08:56.057Z,23.23
2022-10-19T06:09:57.581Z,20.77
2022-10-19T06:11:10.892Z,25.30
2022-10-19T06:12:12.499Z,21.07
2022-10-19T06:13:14.891Z,21.10
2022-10-19T06:14:16.765Z,24.43
2022-10-19T06:15:18.280Z,27.73
2022-10-19T06:16:20.452Z,29.30
2022-10-19T06:17:21.978Z,22.83
2022-10-19T06:18:25.716Z,19.93
2022-10-19T06:19:27.231Z,23.33
2022-10-19T06:20:29.580Z,25.00
2022-10-19T06:21:32.951Z,25.73
2022-10-19T06:22:34.530Z,26.77
2022-10-19T06:23:36.727Z,24.00
2022-10-19T06:24:38.263Z,24.10
2022-10-19T06:25:40.804Z,25.17
2022-10-19T06:26:42.659Z,22.70
2022-10-19T06:27:44.238Z,19.50
2022-10-19T06:28:46.129Z,29.97
2022-10-19T06:29:48.069Z,28.77
2022-10-19T06:30:49.698Z,16.87
2022-10-19T06:31:52.127Z,16.87
2022-10-19T06:32:53.727Z,20.87
2022-10-19T06:33:56.081Z,25.30
2022-10-19T06:34:57.686Z,17.70
2022-10-19T06:36:10.467Z,21.33
2022-10-19T06:37:12.076Z,27.77
2022-10-19T06:38:13.943Z,22.80
2022-10-19T06:39:15.477Z,22.83
2022-10-19T06:40:17.103Z,20.87
2022-10-19T06:41:19.543Z,20.90
2022-10-19T06:42:21.062Z,22.40
2022-10-19T06:43:22.570Z,24.33
2022-10-19T06:44:24.117Z,22.00
2022-10-19T06:45:25.735Z,23.13
2022-10-19T06:46:28.501Z,22.93
2022-10-19T06:48:54.954Z,22.97
2022-10-19T06:49:57.212Z,22.67
2022-10-19T06:51:00.585Z,23.60
2022-10-19T06:52:02.607Z,21.17
2022-10-19T06:53:04.127Z,17.17
2022-10-19T06:54:05.634Z,21.87
2022-10-19T06:55:07.752Z,18.77
2022-10-19T06:56:10.263Z,27.80
2022-10-19T06:57:11.853Z,22.40
2022-10-19T06:58:13.451Z,26.33
2022-10-19T06:59:15.225Z,25.83
2022-10-19T07:00:17.415Z,21.53
2022-10-19T07:01:19.217Z,23.13
2022-10-19T07:02:21.201Z,21.27
2022-10-19T07:03:24.015Z,20.40
2022-10-19T07:04:25.543Z,19.70
2022-10-19T07:05:27.125Z,18.33
2022-10-19T07:06:28.891Z,19.13
2022-10-19T07:07:30.495Z,17.93
2022-10-19T07:08:33.354Z,14.20
2022-10-19T07:09:35.037Z,17.43
2022-10-19T07:10:36.613Z,17.03
2022-10-19T07:11:40.389Z,17.23
2022-10-19T07:12:46.389Z,13.00
2022-10-19T07:13:48.046Z,14.87
2022-10-19T07:14:49.679Z,16.50
2022-10-19T07:16:00.990Z,12.70
2022-10-19T07:17:02.571Z,16.40
2022-10-19T07:18:04.173Z,14.27
2022-10-19T07:19:05.818Z,10.30
2022-10-19T07:20:07.722Z,12.17
2022-10-19T07:21:12.334Z,12.60
2022-10-19T07:22:19.094Z,11.17
2022-10-19T07:23:23.235Z,12.30
2022-10-19T07:24:25.013Z,11.27
2022-10-19T07:25:26.939Z,14.60
2022-10-19T07:26:30.560Z,14.10
2022-10-19T07:27:37.415Z,12.30
2022-10-19T07:28:40.927Z,10.03
2022-10-19T07:29:42.585Z,9.73
2022-10-19T07:30:44.096Z,12.53
2022-10-19T07:31:45.655Z,10.43
2022-10-19T07:32:47.307Z,13.97
2022-10-19T07:33:53.811Z,16.20
2022-10-19T07:34:55.342Z,11.13
2022-10-19T07:36:01.910Z,13.13
2022-10-19T07:37:03.507Z,10.93
2022-10-19T07:38:05.054Z,10.23
2022-10-19T07:39:07.915Z,11.63
2022-10-19T07:40:10.162Z,11.63
2022-10-19T07:41:15.006Z,14.73
2022-10-19T07:42:16.545Z,14.47
2022-10-19T07:43:18.098Z,12.77
2022-10-19T07:44:19.647Z,14.30
2022-10-19T07:45:21.901Z,12.90
2022-10-19T07:46:26.247Z,10.63
2022-10-19T07:47:27.811Z,15.73
2022-10-19T07:48:29.482Z,11.43
2022-10-19T07:49:31.036Z,14.87
2022-10-19T07:50:32.567Z,12.77
2022-10-19T07:51:34.123Z,14.50
2022-10-19T07:52:36.984Z,14.80
2022-10-19T07:53:39.268Z,13.33
2022-10-19T07:54:40.946Z,15.80
2022-10-19T07:55:42.464Z,15.57
2022-10-19T07:56:44.014Z,17.17
2022-10-19T07:57:49.839Z,14.73
2022-10-19T07:58:52.951Z,14.40
2022-10-19T07:59:54.513Z,14.37
2022-10-19T08:01:06.042Z,13.50
2022-10-19T08:02:17.582Z,13.80
2022-10-19T08:03:57.602Z,14.63
2022-10-19T08:04:59.491Z,20.20
2022-10-19T08:06:05.216Z,13.93
2022-10-19T08:07:06.751Z,13.90
2022-10-19T08:08:08.262Z,11.57
2022-10-19T08:09:13.334Z,14.97
2022-10-19T08:10:20.608Z,19.37
2022-10-19T08:11:30.506Z,13.63
2022-10-19T08:12:32.397Z,14.00
2022-10-19T08:13:34.567Z,17.63
2022-10-19T08:14:36.382Z,17.23
2022-10-19T08:15:37.925Z,17.63
2022-10-19T08:16:41.731Z,15.40
2022-10-19T08:17:43.243Z,13.10
2022-10-19T08:18:44.771Z,15.53
2022-10-19T08:19:47.018Z,14.50
2022-10-19T08:20:49.894Z,13.00
2022-10-19T08:21:51.513Z,13.33
2022-10-19T08:22:56.473Z,12.73
2022-10-19T08:24:00.567Z,17.23
2022-10-19T08:25:02.158Z,11.93
2022-10-19T08:26:03.743Z,13.53
2022-10-19T08:27:05.388Z,18.10
2022-10-19T08:28:06.993Z,14.00
2022-10-19T08:29:19.793Z,14.73
2022-10-19T08:30:21.456Z,10.50
2022-10-19T08:31:23.168Z,15.60
2022-10-19T08:32:27.275Z,17.27
2022-10-19T08:33:28.823Z,17.37
2022-10-19T08:34:30.337Z,10.30
2022-10-19T08:35:33.551Z,12.00
2022-10-19T08:36:35.754Z,14.83
2022-10-19T08:37:44.695Z,12.13
2022-10-19T08:38:50.686Z,13.70
2022-10-19T08:39:52.198Z,11.73
2022-10-19T08:40:54.036Z,10.33
2022-10-19T08:42:15.106Z,15.97
2022-10-19T08:43:34.442Z,10.73
2022-10-19T08:45:00.631Z,14.07
2022-10-19T08:46:30.145Z,12.40
2022-10-19T08:47:59.320Z,18.07
2022-10-19T08:49:02.748Z,16.33
2022-10-19T08:50:18.586Z,12.37
2022-10-19T08:51:20.342Z,13.73
2022-10-19T08:52:29.608Z,13.97
2022-10-19T08:53:45.635Z,12.07
2022-10-19T08:54:53.579Z,14.17
2022-10-19T08:56:03.697Z,13.90
2022-10-19T08:57:31.275Z,13.83
2022-10-19T08:58:39.561Z,15.63
2022-10-19T08:59:50.377Z,14.03
2022-10-19T09:01:11.574Z,13.83
2022-10-19T09:02:28.129Z,18.50
2022-10-19T09:03:54.869Z,9.07
2022-10-19T09:05:05.635Z,8.57
2022-10-19T09:06:27.470Z,12.33
2022-10-19T09:07:45.072Z,14.23
2022-10-19T09:08:47.316Z,13.23
2022-10-19T09:10:02.845Z,9.00
2022-10-19T09:11:06.566Z,11.43
2022-10-19T09:12:13.424Z,12.53
2022-10-19T09:13:41.421Z,13.60
2022-10-19T09:15:07.656Z,13.37
2022-10-19T09:16:14.509Z,11.53
2022-10-19T09:17:19.162Z,10.27
2022-10-19T09:18:25.775Z,9.67
2022-10-19T09:19:30.825Z,7.97
2022-10-19T09:20:38.323Z,7.90
2022-10-19T09:21:53.457Z,9.87
2022-10-19T09:23:13.437Z,12.90
2022-10-19T09:24:42.727Z,13.13
2022-10-19T09:25:44.658Z,12.03
2022-10-19T09:26:55.744Z,11.33
2022-10-19T09:28:34.029Z,8.23
2022-10-19T09:29:47.947Z,8.23
2022-10-19T09:30:51.537Z,11.90
2022-10-19T09:33:03.610Z,10.77
2022-10-19T09:34:08.177Z,7.97
2022-10-19T09:35:32.079Z,10.93
2022-10-19T09:36:51.583Z,7.77
2022-10-19T09:37:54.164Z,9.87
2022-10-19T09:38:55.684Z,9.17
2022-10-19T09:39:57.410Z,11.53
2022-10-19T09:41:13.706Z,9.10
2022-10-19T09:42:23.060Z,10.00
2022-10-19T09:43:27.210Z,10.73
2022-10-19T09:44:30.253Z,9.80
2022-10-19T09:45:35.083Z,10.60
2022-10-19T09:46:51.989Z,10.63
2022-10-19T09:47:53.652Z,10.50
2022-10-19T09:48:55.191Z,12.13
2022-10-19T09:50:08.804Z,8.77
2022-10-19T09:51:15.882Z,12.03
2022-10-19T09:52:51.079Z,11.23
2022-10-19T09:53:56.117Z,9.50
2022-10-19T09:55:35.066Z,11.83
2022-10-19T09:56:39.186Z,13.20
2022-10-19T09:57:44.852Z,9.93
2022-10-19T09:58:51.751Z,10.13
2022-10-19T09:59:53.392Z,11.63
2022-10-19T10:00:56.565Z,14.03
2022-10-19T10:02:06.753Z,9.37
2022-10-19T10:03:21.528Z,9.43
2022-10-19T10:04:23.041Z,11.23
2022-10-19T10:05:33.543Z,9.47
2022-10-19T10:06:36.544Z,11.63
2022-10-19T10:07:39.901Z,8.27
2022-10-19T10:08:57.968Z,10.87
2022-10-19T10:10:00.658Z,8.40
2022-10-19T10:11:30.923Z,12.27
2022-10-19T10:12:35.667Z,23.60
2022-10-19T10:13:40.847Z,10.93
2022-10-19T10:14:44.175Z,11.43
2022-10-19T10:15:51.116Z,6.73
2022-10-19T10:17:04.847Z,13.20
2022-10-19T10:18:06.470Z,11.00
2022-10-19T10:19:12.933Z,7.73
2022-10-19T10:20:26.888Z,9.53
2022-10-19T10:22:02.947Z,9.37
2022-10-19T10:23:06.575Z,11.10
2022-10-19T10:24:10.902Z,9.60
2022-10-19T10:25:18.097Z,10.93
2022-10-19T10:26:20.101Z,12.17
2022-10-19T10:27:30.563Z,10.40
2022-10-19T10:28:32.417Z,9.13
2022-10-19T10:29:39.263Z,11.37
2022-10-19T10:30:41.074Z,7.03
2022-10-19T10:31:43.136Z,8.13
2022-10-19T10:32:53.803Z,10.00
2022-10-19T10:34:10.899Z,12.37
2022-10-19T10:35:30.666Z,9.40
2022-10-19T10:36:32.431Z,8.53
2022-10-19T10:37:42.837Z,9.80
2022-10-19T10:38:53.095Z,9.53
2022-10-19T10:40:00.553Z,11.40
2022-10-19T10:41:17.822Z,12.43
2022-10-19T10:42:26.769Z,7.03
2022-10-19T10:43:33.655Z,9.40
2022-10-19T10:44:36.790Z,11.23
2022-10-19T10:45:41.555Z,11.80
2022-10-19T10:46:55.725Z,10.30
2022-10-19T10:48:14.775Z,12.57
2022-10-19T10:49:23.478Z,13.70
2022-10-19T10:50:32.514Z,15.70
2022-10-19T10:51:36.991Z,8.23
2022-10-19T10:52:58.332Z,9.97
2022-10-19T10:54:24.710Z,10.73
2022-10-19T10:55:27.216Z,10.00
2022-10-19T10:56:33.445Z,12.70
2022-10-19T10:57:40.047Z,9.37
2022-10-19T10:58:44.226Z,8.03
2022-10-19T11:00:11.198Z,12.77
2022-10-19T11:01:20.386Z,10.60
2022-10-19T11:02:43.969Z,9.03
2022-10-19T11:03:55.753Z,12.43
2022-10-19T11:05:06.049Z,11.40
2022-10-19T11:06:09.154Z,12.40
2022-10-19T11:07:20.368Z,12.93
2022-10-19T11:08:46.913Z,11.50
2022-10-19T11:09:58.979Z,11.57
2022-10-19T11:11:25.799Z,10.60
2022-10-19T11:13:10.067Z,11.53
2022-10-19T11:14:51.162Z,7.13
2022-10-19T11:16:13.565Z,14.43
2022-10-19T11:17:22.114Z,11.17
2022-10-19T11:18:29.638Z,10.20
2022-10-19T11:19:41.097Z,9.10
2022-10-19T11:21:06.230Z,9.98
2022-10-19T11:22:23.597Z,9.80
2022-10-19T11:24:00.222Z,12.70
2022-10-19T11:25:16.926Z,10.30
2022-10-19T11:26:44.825Z,10.47
2022-10-19T11:28:18.571Z,11.40
2022-10-19T11:29:38.445Z,8.33
2022-10-19T11:31:06.679Z,20.97
2022-10-19T11:32:37.145Z,12.20
2022-10-19T11:34:04.147Z,8.83
2022-10-19T11:35:20.400Z,10.97
2022-10-19T11:36:54.414Z,13.97
2022-10-19T11:38:36.316Z,10.20
2022-10-19T11:40:11.854Z,9.35
2022-10-19T11:41:26.957Z,10.13
2022-10-19T11:42:59.149Z,11.63
2022-10-19T11:44:22.510Z,10.83
2022-10-19T11:45:29.970Z,11.60
2022-10-19T11:46:40.469Z,6.88
2022-10-19T11:47:53.772Z,9.35
2022-10-19T11:49:04.509Z,8.65
2022-10-19T11:50:35.202Z,13.85
2022-10-19T11:51:52.016Z,8.85
2022-10-19T11:53:06.839Z,35.38
2022-10-19T11:54:56.747Z,13.05
2022-10-19T11:56:10.425Z,8.93
2022-10-19T11:57:28.065Z,10.10
2022-10-19T11:58:35.039Z,13.50
2022-10-19T11:59:39.910Z,12.20
2022-10-19T12:00:52.450Z,12.23
2022-10-19T12:02:18.764Z,13.07
2022-10-19T12:03:56.740Z,9.18
2022-10-19T12:05:07.087Z,10.55
2022-10-19T12:06:45.691Z,12.85
2022-10-19T12:07:50.210Z,12.38
2022-10-19T12:09:29.096Z,10.95
2022-10-19T12:11:18.826Z,12.60
2022-10-19T12:12:26.534Z,10.48
2022-10-19T12:13:44.375Z,9.30
2022-10-19T12:14:51.283Z,11.10
2022-10-19T12:15:55.255Z,12.77
2022-10-19T12:17:02.316Z,13.00
2022-10-19T12:18:41.831Z,9.77
2022-10-19T12:19:48.145Z,9.50
2022-10-19T12:20:57.493Z,11.18
2022-10-19T12:22:01.822Z,8.68
2022-10-19T12:23:17.038Z,13.98
2022-10-19T12:24:23.347Z,12.43
2022-10-19T12:25:26.358Z,11.77
2022-10-19T12:26:32.730Z,9.20
2022-10-19T12:27:37.063Z,9.65
2022-10-19T12:28:41.872Z,7.85
2022-10-19T12:29:48.133Z,11.88
2022-10-19T12:30:51.315Z,9.20
2022-10-19T12:31:55.202Z,6.30
2022-10-19T12:33:20.381Z,8.57
2022-10-19T12:34:37.102Z,9.50
2022-10-19T12:36:13.896Z,9.65
2022-10-19T12:37:54.287Z,10.65
2022-10-19T12:39:04.678Z,8.63
2022-10-19T12:40:18.944Z,13.77
2022-10-19T12:41:31.394Z,7.93
2022-10-19T12:42:35.813Z,8.20
2022-10-19T12:43:54.071Z,8.45
2022-10-19T12:45:18.863Z,13.23
2022-10-19T12:46:34.964Z,10.52
2022-10-19T12:47:36.796Z,6.97
2022-10-19T12:48:39.319Z,7.53
2022-10-19T12:49:51.788Z,10.40
2022-10-19T12:50:53.926Z,11.60
2022-10-19T12:52:00.674Z,8.52
2022-10-19T12:53:02.297Z,10.18
2022-10-19T12:54:11.823Z,7.80
2022-10-19T12:55:16.341Z,7.70
2022-10-19T12:56:23.700Z,13.57
2022-10-19T12:57:30.221Z,9.88
2022-10-19T12:58:47.513Z,18.17
2022-10-19T13:00:24.899Z,9.77
2022-10-19T13:01:42.146Z,13.10
2022-10-19T13:02:46.357Z,11.38
2022-10-19T13:03:53.266Z,11.27
2022-10-19T13:04:55.097Z,10.05
2022-10-19T13:05:58.705Z,9.38
2022-10-19T13:07:08.384Z,7.97
2022-10-19T13:08:24.293Z,11.48
2022-10-19T13:09:46.985Z,7.80
2022-10-19T13:11:07.987Z,7.95
2022-10-19T13:12:21.633Z,8.25
2022-10-19T13:13:53.356Z,13.35
2022-10-19T13:14:59.040Z,12.23
2022-10-19T13:16:05.493Z,9.55
2022-10-19T13:17:08.526Z,11.38
2022-10-19T13:18:15.792Z,11.43
2022-10-19T13:19:20.152Z,8.63
2022-10-19T13:20:21.953Z,8.80
2022-10-19T13:21:48.317Z,8.70
2022-10-19T13:23:11.164Z,7.15
2022-10-19T13:24:24.903Z,6.93
2022-10-19T13:25:39.261Z,7.15
2022-10-19T13:26:40.928Z,7.60
2022-10-19T13:27:43.977Z,8.30
2022-10-19T13:28:56.104Z,8.02
2022-10-19T13:29:57.730Z,5.97
2022-10-19T13:31:06.185Z,8.10
2022-10-19T13:32:40.565Z,11.75
2022-10-19T13:33:45.609Z,8.82
2022-10-19T13:34:47.842Z,10.70
2022-10-19T13:35:49.577Z,10.07
2022-10-19T13:37:02.191Z,10.00
2022-10-19T13:38:10.293Z,6.93
2022-10-19T13:39:14.021Z,7.05
2022-10-19T13:40:24.480Z,6.57
2022-10-19T13:41:47.553Z,8.32
2022-10-19T13:42:58.571Z,9.00
2022-10-19T13:44:30.897Z,6.65
2022-10-19T13:45:32.758Z,8.93
2022-10-19T13:46:54.367Z,7.68
2022-10-19T13:48:24.339Z,4.40
2022-10-19T13:49:36.607Z,6.05
2022-10-19T13:50:51.170Z,8.70
2022-10-19T13:52:08.443Z,4.93
2022-10-19T13:53:40.771Z,7.97
2022-10-19T13:55:03.939Z,9.40
2022-10-19T13:56:52.576Z,5.95
2022-10-19T13:58:31.309Z,8.23
2022-10-19T13:59:44.976Z,8.35
2022-10-19T14:00:57.748Z,9.00
2022-10-19T14:02:17.449Z,6.97
2022-10-19T14:03:50.648Z,8.80
2022-10-19T14:05:17.470Z,4.38
2022-10-19T14:06:24.749Z,7.43
2022-10-19T14:08:05.584Z,8.90
2022-10-19T14:09:29.039Z,7.22
2022-10-19T14:10:33.034Z,9.38
2022-10-19T14:11:48.306Z,9.95
2022-10-19T14:12:51.148Z,5.68
2022-10-19T14:14:07.403Z,4.35
2022-10-19T14:15:27.429Z,7.68
2022-10-19T14:16:28.957Z,7.10
2022-10-19T14:17:34.336Z,8.63
2022-10-19T14:18:37.580Z,15.95
2022-10-19T14:19:44.908Z,6.22
2022-10-19T14:20:57.196Z,9.82
2022-10-19T14:22:19.081Z,7.05
2022-10-19T14:23:25.406Z,7.65
2022-10-19T14:24:32.886Z,9.90
2022-10-19T14:25:34.447Z,5.07
2022-10-19T14:26:35.996Z,5.13
2022-10-19T14:27:38.710Z,12.05
2022-10-19T14:28:42.982Z,4.47
2022-10-19T14:29:47.475Z,4.90
2022-10-19T14:31:08.411Z,7.40
2022-10-19T14:32:11.490Z,7.85
2022-10-19T14:33:17.856Z,4.35
2022-10-19T14:34:19.823Z,4.25
2022-10-19T14:35:34.305Z,6.00
2022-10-19T14:36:48.161Z,2.88
2022-10-19T14:37:50.403Z,4.65
2022-10-19T14:38:56.193Z,3.40
2022-10-19T14:40:26.345Z,3.13
2022-10-19T14:41:36.246Z,4.82
2022-10-19T14:42:40.582Z,4.60
2022-10-19T14:43:42.095Z,3.92
2022-10-19T14:44:44.224Z,3.25